createdAt,value
2023-03-18T00:01:12.441Z,49.30
2023-03-18T00:03:40.643Z,47.20
2023-03-18T00:06:14.411Z,51.50
2023-03-18T00:08:43.498Z,56.70
2023-03-18T00:11:13.092Z,52.10
2023-03-18T00:13:42.561Z,48.50
2023-03-18T00:16:12.679Z,48.20
2023-03-18T00:18:41.855Z,51.80
2023-03-18T00:21:10.135Z,55.80
2023-03-18T00:23:38.892Z,52.10
2023-03-18T00:26:09.125Z,50.90
2023-03-18T00:28:40.040Z,40.50
2023-03-18T00:31:10.821Z,43.50
2023-03-18T00:33:40.945Z,47.60
2023-03-18T00:36:13.953Z,50.00
2023-03-18T00:38:47.076Z,51.40
2023-03-18T00:41:16.254Z,48.60
2023-03-18T00:43:52.786Z,42.70
2023-03-18T00:46:33.332Z,50.80
2023-03-18T00:49:04.914Z,50.90
2023-03-18T00:51:36.532Z,42.60
2023-03-18T00:54:08.061Z,56.20
2023-03-18T00:56:39.902Z,45.60
2023-03-18T00:59:08.930Z,41.50
2023-03-18T01:01:37.673Z,39.40
2023-03-18T01:04:07.074Z,50.30
2023-03-18T01:06:37.608Z,37.40
2023-03-18T01:09:09.107Z,36.20
2023-03-18T01:11:38.057Z,43.00
2023-03-18T01:14:06.440Z,40.10
2023-03-18T01:16:34.816Z,35.20
2023-03-18T01:19:04.486Z,36.10
2023-03-18T01:21:33.802Z,36.70
2023-03-18T01:24:02.404Z,52.90
2023-03-18T01:26:31.027Z,39.30
2023-03-18T01:29:00.890Z,35.80
2023-03-18T01:31:29.983Z,47.70
2023-03-18T01:34:02.284Z,44.60
2023-03-18T01:36:36.404Z,46.20
2023-03-18T01:39:08.979Z,48.80
2023-03-18T01:41:37.865Z,54.60
2023-03-18T01:44:14.710Z,52.10
2023-03-18T01:46:45.643Z,47.50
2023-03-18T01:49:20.770Z,48.60
2023-03-18T01:52:13.063Z,38.90
2023-03-18T01:54:59.080Z,38.90
2023-03-18T01:57:29.173Z,43.70
2023-03-18T01:59:59.045Z,41.00
2023-03-18T02:02:28.751Z,38.40
2023-03-18T02:05:02.040Z,34.30
2023-03-18T02:07:35.826Z,45.70
2023-03-18T02:10:11.807Z,34.00
2023-03-18T02:12:49.199Z,41.30
2023-03-18T02:15:22.800Z,36.10
2023-03-18T02:18:02.871Z,43.50
2023-03-18T02:20:40.823Z,43.30
2023-03-18T02:23:48.253Z,44.20
2023-03-18T02:26:48.420Z,41.60
2023-03-18T02:29:19.519Z,42.10
2023-03-18T02:31:55.082Z,40.60
2023-03-18T02:34:25.724Z,31.70
2023-03-18T02:36:57.444Z,35.00
2023-03-18T02:39:26.668Z,37.10
2023-03-18T02:41:56.639Z,35.80
2023-03-18T02:44:25.006Z,39.30
2023-03-18T02:47:25.145Z,35.80
2023-03-18T02:49:53.969Z,35.80
2023-03-18T02:52:22.518Z,41.30
2023-03-18T02:54:51.669Z,42.80
2023-03-18T02:57:19.802Z,44.10
2023-03-18T02:59:47.985Z,52.00
2023-03-18T03:02:16.863Z,58.90
2023-03-18T03:04:45.378Z,55.10
2023-03-18T03:07:16.615Z,47.60
2023-03-18T03:09:47.906Z,48.30
2023-03-18T03:12:16.269Z,40.10
2023-03-18T03:14:49.197Z,40.60
2023-03-18T03:17:17.512Z,41.00
2023-03-18T03:19:46.742Z,48.20
2023-03-18T03:22:17.605Z,35.60
2023-03-18T03:24:47.746Z,42.20
2023-03-18T03:27:15.793Z,41.60
2023-03-18T03:29:43.772Z,44.80
2023-03-18T03:32:12.076Z,37.60
2023-03-18T03:34:40.086Z,33.90
2023-03-18T03:37:08.229Z,38.50
2023-03-18T03:39:36.343Z,41.60
2023-03-18T03:42:04.298Z,44.60
2023-03-18T03:44:32.306Z,42.00
2023-03-18T03:47:00.215Z,36.20
2023-03-18T03:49:28.525Z,41.60
2023-03-18T03:51:57.380Z,39.80
2023-03-18T03:54:26.025Z,38.70
2023-03-18T03:56:54.570Z,44.00
2023-03-18T03:59:22.539Z,38.60
2023-03-18T04:02:14.012Z,46.20
2023-03-18T04:04:42.729Z,53.50
2023-03-18T04:07:16.954Z,37.00
2023-03-18T04:09:45.696Z,43.30
2023-03-18T04:12:14.336Z,38.50
2023-03-18T04:14:42.330Z,47.10
2023-03-18T04:17:11.642Z,52.70
2023-03-18T04:19:40.489Z,44.30
2023-03-18T04:22:08.644Z,33.00
2023-03-18T04:24:36.839Z,40.70
2023-03-18T04:27:05.905Z,46.30
2023-03-18T04:29:34.291Z,44.20
2023-03-18T04:32:03.206Z,51.60
2023-03-18T04:34:32.119Z,56.60
2023-03-18T04:37:01.559Z,58.70
2023-03-18T04:39:30.592Z,54.20
2023-03-18T04:41:58.676Z,50.20
2023-03-18T04:44:26.911Z,60.60
2023-03-18T04:46:55.258Z,52.40
2023-03-18T04:49:24.688Z,42.10
2023-03-18T04:51:55.016Z,47.10
2023-03-18T04:54:28.412Z,40.20
2023-03-18T04:56:58.480Z,46.60
2023-03-18T04:59:28.133Z,44.10
2023-03-18T05:01:57.097Z,44.10
2023-03-18T05:04:26.102Z,52.60
2023-03-18T05:06:54.896Z,34.90
2023-03-18T05:09:27.548Z,43.60
2023-03-18T05:11:55.832Z,41.20
2023-03-18T05:14:29.180Z,41.20
2023-03-18T05:16:57.229Z,42.60
2023-03-18T05:19:25.409Z,42.40
2023-03-18T05:22:10.395Z,42.60
2023-03-18T05:24:39.652Z,45.60
2023-03-18T05:27:08.331Z,44.30
2023-03-18T05:29:40.414Z,43.50
2023-03-18T05:32:16.812Z,38.30
2023-03-18T05:34:45.617Z,44.30
2023-03-18T05:37:16.100Z,47.60
2023-03-18T05:39:49.854Z,41.80
2023-03-18T05:42:19.792Z,42.90
2023-03-18T05:44:48.534Z,46.50
2023-03-18T05:47:18.706Z,46.90
2023-03-18T05:50:07.685Z,43.30
2023-03-18T05:52:38.370Z,53.70
2023-03-18T05:55:13.929Z,42.60
2023-03-18T05:57:43.322Z,47.60
2023-03-18T06:00:13.605Z,49.80
2023-03-18T06:02:46.394Z,56.40
2023-03-18T06:05:15.202Z,45.60
2023-03-18T06:07:43.688Z,43.70
2023-03-18T06:10:12.473Z,44.20
2023-03-18T06:12:44.818Z,45.90
2023-03-18T06:15:13.864Z,48.20
2023-03-18T06:17:42.158Z,51.80
2023-03-18T06:20:14.761Z,44.20
2023-03-18T06:22:43.905Z,40.80
2023-03-18T06:25:11.931Z,46.20
2023-03-18T06:27:40.240Z,37.80
2023-03-18T06:30:09.778Z,43.70
2023-03-18T06:32:38.573Z,36.90
2023-03-18T06:35:07.802Z,30.00
2023-03-18T06:37:39.291Z,27.60
2023-03-18T06:40:10.849Z,29.30
2023-03-18T06:42:39.573Z,37.30
2023-03-18T06:45:12.603Z,31.80
2023-03-18T06:47:48.115Z,31.90
2023-03-18T06:50:16.931Z,28.30
2023-03-18T06:52:45.976Z,25.50
2023-03-18T06:55:16.860Z,24.30
2023-03-18T06:57:46.868Z,21.30
2023-03-18T07:00:17.976Z,19.80
2023-03-18T07:02:46.336Z,25.70
2023-03-18T07:05:17.320Z,23.70
2023-03-18T07:07:46.319Z,20.50
2023-03-18T07:10:24.005Z,25.20
2023-03-18T07:12:53.411Z,19.90
2023-03-18T07:15:23.960Z,24.00
2023-03-18T07:17:53.943Z,19.50
2023-03-18T07:20:22.711Z,28.80
2023-03-18T07:22:51.873Z,23.50
2023-03-18T07:25:21.812Z,24.00
2023-03-18T07:27:52.450Z,26.90
2023-03-18T07:30:21.382Z,31.00
2023-03-18T07:32:50.112Z,26.90
2023-03-18T07:35:18.712Z,22.00
2023-03-18T07:37:46.810Z,32.60
2023-03-18T07:40:15.446Z,18.90
2023-03-18T07:42:43.675Z,21.50
2023-03-18T07:45:12.336Z,24.50
2023-03-18T07:47:40.627Z,25.40
2023-03-18T07:50:10.852Z,25.90
2023-03-18T07:52:38.719Z,28.00
2023-03-18T07:55:07.127Z,21.00
2023-03-18T07:57:35.726Z,29.40
2023-03-18T08:00:07.011Z,10.90
2023-03-18T08:02:42.405Z,8.60
2023-03-18T08:05:11.740Z,10.40
2023-03-18T08:07:39.933Z,6.80
2023-03-18T08:10:09.214Z,9.50
2023-03-18T08:12:51.710Z,7.10
2023-03-18T08:15:22.478Z,7.80
2023-03-18T08:17:52.741Z,7.90
2023-03-18T08:20:23.352Z,6.70
2023-03-18T08:22:51.620Z,12.10
2023-03-18T08:25:20.242Z,7.70
2023-03-18T08:27:48.323Z,8.90
2023-03-18T08:30:16.874Z,7.70
2023-03-18T08:32:45.126Z,7.50
2023-03-18T08:35:13.727Z,5.90
2023-03-18T08:37:41.772Z,7.30
2023-03-18T08:40:11.771Z,9.20
2023-03-18T08:42:40.016Z,9.80
2023-03-18T08:45:08.799Z,9.30
2023-03-18T08:47:36.871Z,10.00
2023-03-18T08:50:06.162Z,6.60
2023-03-18T08:52:34.319Z,9.60
2023-03-18T08:55:02.575Z,8.10
2023-03-18T08:57:32.100Z,10.10
2023-03-18T09:00:00.826Z,7.50
2023-03-18T09:02:29.142Z,9.30
2023-03-18T09:04:57.282Z,9.80
2023-03-18T09:07:25.929Z,5.80
2023-03-18T09:09:54.362Z,8.60
2023-03-18T09:12:22.761Z,9.50
2023-03-18T09:14:50.758Z,8.80
2023-03-18T09:17:18.896Z,8.20
2023-03-18T09:19:46.961Z,8.60
2023-03-18T09:22:15.073Z,10.50
2023-03-18T09:24:43.210Z,16.70
2023-03-18T09:27:11.563Z,10.00
2023-03-18T09:29:39.857Z,8.60
2023-03-18T09:32:08.758Z,11.20
2023-03-18T09:34:36.736Z,10.70
2023-03-18T09:37:04.989Z,7.70
2023-03-18T09:39:33.429Z,6.00
2023-03-18T09:42:20.372Z,7.50
2023-03-18T09:44:58.661Z,7.80
2023-03-18T09:47:32.951Z,8.90
2023-03-18T09:50:06.679Z,7.70
2023-03-18T09:52:44.272Z,6.90
2023-03-18T09:55:25.640Z,7.80
2023-03-18T09:57:58.751Z,6.30
2023-03-18T10:00:38.005Z,7.40
2023-03-18T10:03:14.592Z,8.20
2023-03-18T10:05:58.616Z,9.70
2023-03-18T10:08:40.396Z,8.30
2023-03-18T10:11:22.149Z,11.40
2023-03-18T10:14:17.699Z,7.20
2023-03-18T10:17:02.070Z,10.90
2023-03-18T10:19:31.195Z,7.10
2023-03-18T10:22:24.708Z,10.30
2023-03-18T10:25:23.735Z,7.90
2023-03-18T10:28:13.842Z,7.80
2023-03-18T10:31:01.458Z,9.10
2023-03-18T10:33:52.194Z,12.50
2023-03-18T10:36:47.447Z,9.50
2023-03-18T10:39:18.719Z,7.50
2023-03-18T10:41:50.248Z,9.40
2023-03-18T10:44:33.087Z,8.40
2023-03-18T10:47:13.190Z,13.50
2023-03-18T10:49:47.489Z,4.70
2023-03-18T10:52:42.623Z,6.70
2023-03-18T10:55:21.871Z,10.80
2023-03-18T10:57:50.959Z,8.10
2023-03-18T11:00:33.203Z,9.10
2023-03-18T11:03:02.745Z,8.40
2023-03-18T11:05:38.093Z,13.30
2023-03-18T11:08:09.278Z,7.20
2023-03-18T11:10:47.222Z,9.50
2023-03-18T11:13:18.359Z,8.90
2023-03-18T11:15:52.742Z,7.00
2023-03-18T11:18:27.023Z,9.50
2023-03-18T11:21:01.107Z,7.20
2023-03-18T11:23:49.406Z,8.20
2023-03-18T11:26:27.667Z,8.40
2023-03-18T11:29:04.927Z,10.80
2023-03-18T11:31:34.249Z,6.70
2023-03-18T11:34:09.270Z,7.40
2023-03-18T11:36:38.582Z,8.40
2023-03-18T11:39:07.053Z,9.30
2023-03-18T11:41:38.228Z,9.50
2023-03-18T11:44:08.717Z,8.00
2023-03-18T11:47:05.598Z,6.70
2023-03-18T11:49:34.515Z,7.00
2023-03-18T11:52:24.475Z,8.40
2023-03-18T11:55:01.072Z,8.50
2023-03-18T11:57:59.350Z,8.50
2023-03-18T12:00:27.494Z,8.00
2023-03-18T12:03:23.697Z,8.70
2023-03-18T12:06:16.761Z,17.10
2023-03-18T12:09:11.740Z,9.60
2023-03-18T12:12:04.156Z,10.70
2023-03-18T12:14:54.931Z,8.60
2023-03-18T12:17:43.634Z,9.80
2023-03-18T12:20:32.045Z,6.20
2023-03-18T12:23:11.555Z,6.90
2023-03-18T12:25:55.186Z,9.00
2023-03-18T12:28:39.290Z,10.20
2023-03-18T12:31:07.285Z,8.30
2023-03-18T12:33:47.920Z,8.30
2023-03-18T12:36:26.656Z,8.80
2023-03-18T12:39:16.680Z,12.20
2023-03-18T12:42:07.079Z,6.40
2023-03-18T12:44:50.840Z,11.00
2023-03-18T12:47:25.807Z,8.80
2023-03-18T12:50:08.920Z,11.30
2023-03-18T12:52:37.601Z,9.20
2023-03-18T12:55:27.912Z,6.70
2023-03-18T12:58:14.477Z,6.80
2023-03-18T13:00:53.388Z,11.00
2023-03-18T13:03:42.964Z,8.90
2023-03-18T13:06:19.150Z,9.60
2023-03-18T13:09:19.017Z,12.10
2023-03-18T13:12:09.969Z,6.70
2023-03-18T13:14:59.897Z,7.80
2023-03-18T13:17:34.289Z,6.80
2023-03-18T13:20:11.182Z,6.50
2023-03-18T13:22:42.431Z,9.90
2023-03-18T13:25:37.823Z,7.90
2023-03-18T13:28:32.260Z,12.60
2023-03-18T13:31:15.835Z,15.50
2023-03-18T13:33:59.229Z,7.00
2023-03-18T13:36:41.923Z,7.30
2023-03-18T13:39:22.673Z,7.30
2023-03-18T13:42:22.559Z,7.10
2023-03-18T13:45:09.132Z,8.30
2023-03-18T13:47:39.315Z,10.00
2023-03-18T13:50:33.169Z,6.50
2023-03-18T13:53:03.363Z,12.00
2023-03-18T13:55:35.319Z,10.30
2023-03-18T13:58:14.100Z,8.70
2023-03-18T14:00:44.138Z,7.40
2023-03-18T14:03:20.226Z,8.70
2023-03-18T14:06:10.837Z,7.70
2023-03-18T14:08:38.988Z,10.70
2023-03-18T14:11:28.810Z,7.60
2023-03-18T14:14:03.276Z,7.10
2023-03-18T14:16:34.451Z,11.40
2023-03-18T14:19:06.195Z,9.40
2023-03-18T14:21:34.526Z,12.00
2023-03-18T14:24:16.296Z,14.10
2023-03-18T14:27:07.924Z,14.50
2023-03-18T14:29:43.331Z,7.10
2023-03-18T14:35:02.288Z,8.30
2023-03-18T14:37:32.808Z,8.30
2023-03-18T14:40:17.823Z,8.10
2023-03-18T14:43:01.085Z,8.70
2023-03-18T14:45:40.265Z,9.10
2023-03-18T14:48:20.660Z,6.90
2023-03-18T14:50:53.736Z,8.70
2023-03-18T14:53:32.551Z,13.50
2023-03-18T14:56:03.885Z,10.20
2023-03-18T14:58:34.555Z,11.00
2023-03-18T15:01:11.084Z,15.40
2023-03-18T15:03:43.666Z,12.00
2023-03-18T15:06:19.484Z,8.80
2023-03-18T15:08:51.520Z,13.90
2023-03-18T15:11:22.962Z,10.00
2023-03-18T15:13:55.200Z,12.50
2023-03-18T15:16:25.334Z,7.90
2023-03-18T15:18:55.742Z,6.90
2023-03-18T15:21:30.302Z,6.70
2023-03-18T15:24:05.610Z,10.40
2023-03-18T15:26:39.904Z,9.80
2023-03-18T15:29:24.601Z,7.00
2023-03-18T15:31:53.608Z,9.30
2023-03-18T15:34:31.020Z,9.40
2023-03-18T15:37:02.240Z,9.10
2023-03-18T15:39:36.518Z,14.00
2023-03-18T15:42:15.634Z,7.40
2023-03-18T15:44:46.608Z,9.70
2023-03-18T15:47:19.456Z,12.20
2023-03-18T15:49:57.678Z,18.40
2023-03-18T15:52:31.368Z,10.90
2023-03-18T15:55:01.392Z,7.50
2023-03-18T15:57:47.565Z,10.70
2023-03-18T16:00:16.244Z,7.80
2023-03-18T16:02:44.325Z,10.00
2023-03-18T16:05:19.577Z,9.40
2023-03-18T16:07:49.175Z,12.30
2023-03-18T16:10:22.906Z,12.40
2023-03-18T16:13:01.280Z,9.90
2023-03-18T16:15:30.012Z,11.10
2023-03-18T16:17:58.326Z,8.90
2023-03-18T16:20:29.548Z,8.00
2023-03-18T16:22:58.938Z,12.30
2023-03-18T16:25:27.716Z,9.50
2023-03-18T16:27:59.118Z,12.90
2023-03-18T16:30:30.220Z,12.90
2023-03-18T16:32:58.896Z,8.20
2023-03-18T16:35:32.773Z,11.20
2023-03-18T16:38:01.388Z,16.00
2023-03-18T16:40:31.442Z,8.90
2023-03-18T16:43:00.037Z,7.70
2023-03-18T16:45:30.885Z,10.10
2023-03-18T16:48:05.593Z,9.30
2023-03-18T16:50:36.653Z,18.70
2023-03-18T16:53:17.744Z,14.00
2023-03-18T16:55:49.096Z,17.10
2023-03-18T16:58:23.359Z,15.40
2023-03-18T17:00:51.685Z,21.70
2023-03-18T17:03:20.093Z,12.40
2023-03-18T17:05:53.129Z,10.60
2023-03-18T17:08:22.135Z,13.60
2023-03-18T17:10:53.122Z,37.40
2023-03-18T17:13:28.562Z,17.00
2023-03-18T17:15:56.814Z,30.90
2023-03-18T17:18:25.378Z,23.70
2023-03-18T17:20:53.725Z,16.60
2023-03-18T17:23:25.476Z,25.80
2023-03-18T17:26:02.779Z,20.60
2023-03-18T17:28:37.991Z,16.60
2023-03-18T17:31:06.826Z,14.60
2023-03-18T17:33:37.205Z,18.80
2023-03-18T17:36:07.082Z,14.60
2023-03-18T17:38:35.615Z,13.20
2023-03-18T17:41:12.508Z,14.70
2023-03-18T17:43:40.629Z,13.60
2023-03-18T17:46:09.910Z,12.60
2023-03-18T17:48:38.758Z,13.50
2023-03-18T17:51:13.993Z,12.50
2023-03-18T17:56:14.248Z,13.90
2023-03-18T17:58:49.751Z,16.20
2023-03-18T18:01:26.588Z,16.70
2023-03-18T18:03:57.394Z,23.50
2023-03-18T18:06:29.532Z,29.00
2023-03-18T18:09:00.687Z,25.60
2023-03-18T18:11:31.297Z,47.30
2023-03-18T18:14:15.057Z,46.60
2023-03-18T18:16:44.061Z,60.80
2023-03-18T18:19:12.265Z,54.40
2023-03-18T18:21:41.758Z,36.30
2023-03-18T18:24:23.307Z,46.20
2023-03-18T18:26:52.579Z,35.70
2023-03-18T18:29:23.580Z,40.80
2023-03-18T18:31:52.862Z,42.00
2023-03-18T18:34:21.433Z,46.50
2023-03-18T18:36:50.828Z,51.10
2023-03-18T18:39:19.718Z,64.40
2023-03-18T18:41:48.498Z,57.00
2023-03-18T18:44:16.558Z,53.20
2023-03-18T18:46:45.326Z,49.40
2023-03-18T18:49:23.858Z,51.20
2023-03-18T18:51:54.919Z,65.10
2023-03-18T18:54:24.632Z,61.90
2023-03-18T18:56:53.207Z,38.30
2023-03-18T18:59:26.861Z,31.90
2023-03-18T19:01:56.481Z,43.50
2023-03-18T19:04:24.743Z,53.90
2023-03-18T19:06:54.158Z,54.20
2023-03-18T19:09:24.945Z,44.90
2023-03-18T19:11:56.617Z,40.70
2023-03-18T19:14:25.543Z,41.50
2023-03-18T19:16:56.548Z,58.30
2023-03-18T19:19:27.928Z,36.90
2023-03-18T19:21:57.641Z,33.80
2023-03-18T19:24:36.070Z,50.20
2023-03-18T19:27:07.259Z,35.40
2023-03-18T19:29:37.333Z,37.90
2023-03-18T19:32:07.309Z,33.90
2023-03-18T19:34:35.513Z,29.00
2023-03-18T19:37:05.967Z,28.30
2023-03-18T19:39:34.388Z,35.50
2023-03-18T19:42:02.558Z,36.10
2023-03-18T19:44:31.000Z,41.70
2023-03-18T19:46:59.432Z,42.70
2023-03-18T19:49:35.751Z,38.70
2023-03-18T19:52:21.222Z,45.10
2023-03-18T19:54:50.368Z,38.00
2023-03-18T19:57:29.420Z,44.90
2023-03-18T19:59:59.654Z,39.00
2023-03-18T20:02:31.273Z,38.00
2023-03-18T20:05:04.550Z,37.60
2023-03-18T20:07:32.962Z,34.40
2023-03-18T20:10:01.095Z,39.20
2023-03-18T20:12:34.925Z,48.00
2023-03-18T20:15:05.115Z,46.40
2023-03-18T20:18:00.978Z,46.40
2023-03-18T20:20:31.569Z,54.40
2023-03-18T20:23:06.434Z,52.50
2023-03-18T20:25:38.890Z,55.60
2023-03-18T20:28:14.657Z,53.90
2023-03-18T20:30:43.392Z,54.00
2023-03-18T20:33:12.004Z,53.40
2023-03-18T20:35:43.245Z,42.20
2023-03-18T20:38:33.022Z,53.70
2023-03-18T20:41:01.209Z,55.40
2023-03-18T20:43:29.987Z,49.20
2023-03-18T20:45:59.867Z,50.30
2023-03-18T20:48:28.118Z,48.00
2023-03-18T20:50:56.522Z,44.80
2023-03-18T20:53:28.750Z,43.20
2023-03-18T20:55:57.321Z,51.50
2023-03-18T20:58:27.570Z,40.20
2023-03-18T21:00:55.706Z,36.80
2023-03-18T21:03:25.866Z,41.90
2023-03-18T21:05:57.853Z,37.30
2023-03-18T21:08:27.456Z,41.40
2023-03-18T21:10:59.021Z,31.10
2023-03-18T21:13:30.442Z,39.00
2023-03-18T21:16:00.253Z,30.00
2023-03-18T21:18:28.429Z,43.30
2023-03-18T21:20:57.108Z,35.10
2023-03-18T21:23:27.826Z,35.90
2023-03-18T21:25:56.823Z,37.50
2023-03-18T21:28:27.075Z,31.50
2023-03-18T21:30:58.248Z,34.60
2023-03-18T21:33:32.917Z,36.90
2023-03-18T21:36:02.366Z,42.40
2023-03-18T21:38:32.022Z,38.00
2023-03-18T21:41:02.307Z,41.40
2023-03-18T21:43:40.579Z,37.90
2023-03-18T21:46:14.653Z,42.40
2023-03-18T21:48:42.887Z,41.20
2023-03-18T21:51:37.973Z,47.20
2023-03-18T21:54:19.018Z,33.90
2023-03-18T21:56:47.211Z,40.10
2023-03-18T21:59:15.648Z,49.10
2023-03-18T22:01:44.030Z,51.50
2023-03-18T22:04:12.671Z,45.60
2023-03-18T22:06:40.925Z,47.90
2023-03-18T22:09:09.958Z,44.30
2023-03-18T22:11:38.063Z,48.80
2023-03-18T22:14:06.105Z,51.70
2023-03-18T22:16:34.366Z,46.70
2023-03-18T22:19:03.005Z,49.40
2023-03-18T22:21:31.445Z,42.90
2023-03-18T22:24:00.687Z,42.90
2023-03-18T22:26:28.780Z,44.80
2023-03-18T22:28:56.923Z,44.40
2023-03-18T22:31:26.967Z,42.30
2023-03-18T22:33:55.362Z,41.10
2023-03-18T22:36:25.477Z,43.40
2023-03-18T22:38:53.594Z,46.80
2023-03-18T22:41:25.384Z,39.20
2023-03-18T22:43:53.603Z,40.20
2023-03-18T22:46:21.838Z,48.70
2023-03-18T22:48:49.843Z,45.60
2023-03-18T22:51:29.824Z,49.50
2023-03-18T22:53:58.287Z,37.70
2023-03-18T22:56:26.661Z,50.50
2023-03-18T22:58:54.860Z,49.00
2023-03-18T23:01:29.849Z,44.20
2023-03-18T23:03:58.022Z,51.00
2023-03-18T23:06:27.366Z,47.20
2023-03-18T23:08:55.963Z,49.50
2023-03-18T23:11:24.927Z,53.90
2023-03-18T23:13:54.104Z,49.40
2023-03-18T23:16:23.874Z,41.40
2023-03-18T23:18:52.233Z,49.30
2023-03-18T23:21:23.078Z,43.90
2023-03-18T23:23:52.661Z,52.90
2023-03-18T23:26:20.989Z,42.10
2023-03-18T23:28:49.396Z,49.50
2023-03-18T23:31:18.093Z,43.90
2023-03-18T23:33:47.359Z,43.60
2023-03-18T23:36:15.964Z,43.30
2023-03-18T23:38:44.162Z,48.30
2023-03-18T23:41:12.487Z,42.10
2023-03-18T23:43:40.537Z,41.90
2023-03-18T23:46:08.808Z,44.80
2023-03-18T23:48:37.016Z,44.60
2023-03-18T23:51:05.222Z,40.20
2023-03-18T23:53:33.272Z,52.10
2023-03-18T23:56:01.316Z,57.00
2023-03-18T23:58:29.427Z,54.00
